Airfield :
LOGIN :

Register | Disclaimer

   EN    FR    IT 

 










Legend :    VFR   Marginal VFR   IFR   Intensive IFR   Very Intensive IFR
Visi :
Ceiling :
>= 8 km
>= 3000ft
5 to 8 km
1000 to 3000 ft
1500m to 5 km
500 to 1000 ft
800 to 1500m
200 to 500 ft
< 800m
< 200 ft
Symbols :   Thunderstorms  Fog  Heavy snow  Heavy precipitations  Wind > 20 kt
SIGMETs :     Misc.  Thunderstorms  Icing  Turbulence  Mountain Waves  Volcanic Ashes






- Airport Elevation : 287 ft


LFRL - Lanveoc Poulmic

CURRENT METAR :
  • 071000Z AUTO 17008KT 9999 BKN005 OVC016 14/14 Q1025 BECMG BKN020

EXPIRED METARs :
  • 070930Z AUTO 20006KT 170V230 9999 BKN005 OVC014 14/13 Q1025 BECMG BKN020
  • 070900Z AUTO 19006KT 9999 BKN003 BKN014 BKN041 13/13 Q1025 BECMG BKN020
  • 070830Z AUTO 19004KT 160V220 9999 BKN003 13/13 Q1025 BECMG 3000 BR BKN016
  • 070800Z AUTO 19005KT 7000 FEW002 12/12 Q1025 BECMG 3000 BR
  • 070730Z AUTO 18005KT 6000 BKN003 BKN013 11/11 Q1025 BECMG 24010KT 3000 BR BKN016

TAF AMD TAF LFRL
Valid from the 07 at 08:00 until the 08 at 06:00 UTC


070843Z 0708/0806 18005KT 9999 BKN020
TEMPO 0708/0710 BKN003 BKN012
TEMPO 0719/0723 -RA BKN013



MET'MAP, your aeronautical weather chart ! - Copyright ORBIFLY December 2007 - Disclaimer

ORBIFLY MET'MAP TEAM :

Programming & Development : Alexandra Zaïnal
Original concept : Baudouin d'Aumeries
Technical & hardware support : Manuel Goepfert
Assistance : Marc-Olivier Méhu




SOURCES & CREDITS :

   NOAA